Custer, SD

2:08 AM MDT on July 24, 2014 (GMT -0600)
Custer County (KCUT) Elev 5600 ft | 43.73 °N, 103.62 °W | Change Station

Current weather conditions updated 15 minutes ago

Clear
Clear
69 °F
Feels Like 69 °F
N
6
Wind Variable Wind from NE

Today is forecast to be Much Warmer than yesterday.

Today
High -- | Low -- °F
--% Chance of Precip.
Yesterday
High -- | Low -- °F
Precip. -- in
5:35 AM 8:26 PM
Waning Crescent, 6% visible
Pressure 29.90 in
Visibility 10.0 miles
Clouds Clear
Dew Point 61 °F
Humidity 75%
Rainfall 0.00 in
Snow Depth Not available.
UV 0 out of 12
Pollen 6.40 out of 12
Air Quality Not available.
Flu Activity Not available.
METAR KCUT 240753Z AUTO 05005KT 10SM CLR 21/16 A3013 RMK AO2 SLP123 T02060161

More Conditions Fewer Conditions

Pressure 29.90 in
Visibility 10.0 miles
Clouds Clear
Dew Point 61 °F
Humidity 75%
Rainfall 0.00 in
Snow Depth Not available.
UV 0 out of 12
Pollen 6.40 out of 12
Air Quality Not available.
Flu Activity Not available.
METAR KCUT 240753Z AUTO 05005KT 10SM CLR 21/16 A3013 RMK AO2 SLP123 T02060161

More Conditions Fewer Conditions

10-Day Weather Forecast

Almanac

Astronomy

Jul. 24, 2014 Rise Set
Actual Time 5:35 AM MDT 8:26 PM MDT
Civil Twilight 5:01 AM MDT 8:59 PM MDT
Nautical Twilight 4:18 AM MDT 9:42 PM MDT
Astronomical Twilight 3:28 AM MDT 10:32 PM MDT
Moon 3:45 AM MDT 6:42 PM MDT
Length of Visible Light 15h 58m
Length of Day
14h 51m
Tomorrow will be 2m 1s shorter.
Waning Crescent, 6% of the Moon is Illuminated
Today
Waning Crescent
Jul 26
New
Aug 3
First Quarter
Aug 10
Full
Aug 17
Last Quarter

Today's Extremes

State Highs State Lows

Community

WunderPhotos

Upload Photos

1,736,950 photos uploaded!

Nearby

Snow Depth

Station Depth Elevation
Blind Park 1 in 6890 ft

Earthquake Activity

City Distance Mag. Time & Date
No recent earthquake activity has been reported nearby.
Minimum magnitude displayed is 2.5.

Coastal Water Temperatures

Place Temperature
No Stations Reporting

Nearby Weather Stations

Station Location Temp. Heat Index Dew Point Humidity Wind Precip. Elev Updated Type
RAWS CUSTER SD, Custer, SD 71 °F 74 °F 60 °F 69% WNW  at  3 mph 0.00 in / hr 5820 ft 1:24 AM MDT MADIS
RAWS BAKER PARK SD, Keystone, SD 70 °F - 62 °F 77% North  at  4 mph 0.00 in / hr 4673 ft 12:35 AM MDT MADIS
RAWS RED CANYON SD, Edgemont, SD 76 °F 78 °F 63 °F 64% ESE  at  4 mph 0.00 in / hr 4644 ft 12:57 AM MDT MADIS
RAWS BKF3 PORTABLE SD, Hill City, SD 68 °F - 53 °F 58% North  at  0 mph 0.00 in / hr 6629 ft 12:36 AM MDT MADIS
HADS BEAVER CREEK NEAR BUFFALO GAP 2S SD, Buffalo Gap, SD 69 °F - - - North  at  - 0.00 in / hr 3149 ft 12:45 AM MDT MADIS

Show More Stations Show Fewer Stations